createdAt,value
2018-07-04T00:00:35.496Z,12.75
2018-07-04T00:01:35.486Z,12.64
2018-07-04T00:02:35.479Z,12.67
2018-07-04T00:03:35.461Z,12.60
2018-07-04T00:04:35.479Z,12.64
2018-07-04T00:05:35.441Z,12.64
2018-07-04T00:06:35.427Z,12.64
2018-07-04T00:07:35.426Z,12.61
2018-07-04T00:08:35.410Z,12.68
2018-07-04T00:09:35.400Z,12.61
2018-07-04T00:10:35.407Z,12.68
2018-07-04T00:11:35.377Z,12.61
2018-07-04T00:12:35.365Z,12.58
2018-07-04T00:13:35.363Z,12.60
2018-07-04T00:14:35.351Z,12.60
2018-07-04T00:15:35.337Z,12.65
2018-07-04T00:16:35.324Z,12.61
2018-07-04T00:17:35.311Z,12.61
2018-07-04T00:18:35.297Z,12.60
2018-07-04T00:19:35.294Z,12.58
2018-07-04T00:20:35.306Z,12.64
2018-07-04T00:21:35.275Z,12.67
2018-07-04T00:22:35.263Z,12.79
2018-07-04T00:23:35.243Z,12.70
2018-07-04T00:24:35.235Z,12.83
2018-07-04T00:25:35.238Z,12.73
2018-07-04T00:26:35.213Z,12.80
2018-07-04T00:27:35.223Z,12.82
2018-07-04T00:28:35.196Z,12.76
2018-07-04T00:29:35.205Z,12.75
2018-07-04T00:30:35.175Z,12.76
2018-07-04T00:31:35.161Z,12.64
2018-07-04T00:32:35.153Z,12.67
2018-07-04T00:33:35.140Z,12.68
2018-07-04T00:34:35.132Z,12.64
2018-07-04T00:35:35.117Z,12.67
2018-07-04T00:36:35.106Z,12.64
2018-07-04T00:37:35.095Z,12.75
2018-07-04T00:38:35.081Z,12.76
2018-07-04T00:39:35.078Z,12.68
2018-07-04T00:40:35.064Z,12.68
2018-07-04T00:41:35.080Z,12.65
2018-07-04T00:42:35.045Z,12.68
2018-07-04T00:43:35.027Z,12.68
2018-07-04T00:44:35.019Z,12.64
2018-07-04T00:45:35.009Z,12.62
2018-07-04T00:46:34.996Z,12.64
2018-07-04T00:47:34.993Z,12.57
2018-07-04T00:48:34.978Z,12.58
2018-07-04T00:49:34.964Z,12.65
2018-07-04T00:50:34.952Z,12.70
2018-07-04T00:51:34.947Z,12.65
2018-07-04T00:52:34.937Z,12.72
2018-07-04T00:53:34.925Z,12.72
2018-07-04T00:54:34.915Z,12.83
2018-07-04T00:55:34.905Z,12.70
2018-07-04T00:56:34.893Z,12.76
2018-07-04T00:57:34.879Z,12.82
2018-07-04T00:58:34.865Z,12.80
2018-07-04T00:59:34.860Z,12.80
2018-07-04T01:00:34.848Z,12.80
2018-07-04T01:01:34.837Z,12.79
2018-07-04T01:02:34.848Z,12.90
2018-07-04T01:03:34.810Z,12.83
2018-07-04T01:04:34.801Z,12.94
2018-07-04T01:05:34.795Z,12.93
2018-07-04T01:06:34.788Z,12.95
2018-07-04T01:07:34.795Z,12.97
2018-07-04T01:08:34.759Z,12.95
2018-07-04T01:09:34.756Z,12.93
2018-07-04T01:10:34.738Z,12.91
2018-07-04T01:11:34.731Z,12.97
2018-07-04T01:12:34.720Z,13.00
2018-07-04T01:13:34.709Z,12.91
2018-07-04T01:14:34.699Z,12.94
2018-07-04T01:15:34.683Z,12.97
2018-07-04T01:16:34.672Z,12.97
2018-07-04T01:17:34.661Z,13.04
2018-07-04T01:18:34.655Z,13.12
2018-07-04T01:19:34.644Z,13.11
2018-07-04T01:20:34.634Z,13.22
2018-07-04T01:21:34.618Z,13.11
2018-07-04T01:22:34.604Z,13.13
2018-07-04T01:23:34.603Z,13.15
2018-07-04T01:24:34.588Z,13.13
2018-07-04T01:25:34.577Z,13.25
2018-07-04T01:26:34.573Z,13.22
2018-07-04T01:27:34.551Z,13.22
2018-07-04T01:28:34.573Z,13.33
2018-07-04T01:29:34.537Z,13.23
2018-07-04T01:30:34.520Z,13.25
2018-07-04T01:31:34.512Z,13.27
2018-07-04T01:32:34.502Z,13.30
2018-07-04T01:33:34.495Z,13.35
2018-07-04T01:34:34.486Z,13.41
2018-07-04T01:35:34.464Z,13.41
2018-07-04T01:36:34.457Z,13.50
2018-07-04T01:37:34.451Z,13.52
2018-07-04T01:38:34.460Z,13.54
2018-07-04T01:39:34.424Z,13.57
2018-07-04T01:40:34.414Z,13.59
2018-07-04T01:41:34.404Z,13.65
2018-07-04T01:42:34.389Z,13.74
2018-07-04T01:43:34.386Z,13.72
2018-07-04T01:44:34.375Z,13.62
2018-07-04T01:45:34.362Z,13.71
2018-07-04T01:46:34.357Z,13.81
2018-07-04T01:47:34.336Z,13.81
2018-07-04T01:48:34.328Z,13.89
2018-07-04T01:49:34.319Z,13.85
2018-07-04T01:50:34.304Z,13.87
2018-07-04T01:51:34.299Z,13.83
2018-07-04T01:52:34.289Z,13.89
2018-07-04T01:53:34.274Z,13.81
2018-07-04T01:54:34.262Z,13.95
2018-07-04T01:55:34.258Z,13.99
2018-07-04T01:56:34.244Z,13.90
2018-07-04T01:57:34.236Z,13.93
2018-07-04T01:58:34.225Z,13.92
2018-07-04T01:59:34.239Z,13.92
2018-07-04T02:00:34.199Z,13.97
2018-07-04T02:01:34.188Z,13.95
2018-07-04T02:02:34.175Z,13.93
2018-07-04T02:03:34.171Z,13.96
2018-07-04T02:04:34.158Z,13.93
2018-07-04T02:05:34.157Z,13.97
2018-07-04T02:06:34.140Z,14.00
2018-07-04T02:07:34.121Z,14.08
2018-07-04T02:08:34.112Z,14.05
2018-07-04T02:09:34.104Z,14.11
2018-07-04T02:10:34.098Z,14.18
2018-07-04T02:11:34.078Z,14.17
2018-07-04T02:12:34.069Z,14.22
2018-07-04T02:13:34.059Z,14.33
2018-07-04T02:14:34.046Z,14.37
2018-07-04T02:15:34.042Z,14.30
2018-07-04T02:16:34.029Z,14.36
2018-07-04T02:17:34.018Z,14.43
2018-07-04T02:18:34.009Z,14.54
2018-07-04T02:19:33.992Z,14.47
2018-07-04T02:20:34.030Z,14.44
2018-07-04T02:21:33.972Z,14.45
2018-07-04T02:22:33.958Z,14.54
2018-07-04T02:23:33.954Z,14.44
2018-07-04T02:24:33.941Z,14.55
2018-07-04T02:25:33.956Z,14.54
2018-07-04T02:26:33.917Z,14.54
2018-07-04T02:27:33.911Z,14.50
2018-07-04T02:28:33.898Z,14.60
2018-07-04T02:29:33.887Z,14.51
2018-07-04T02:30:33.878Z,14.54
2018-07-04T02:31:33.867Z,14.58
2018-07-04T02:32:33.851Z,14.55
2018-07-04T02:33:33.841Z,14.60
2018-07-04T02:34:33.828Z,14.60
2018-07-04T02:35:33.823Z,14.62
2018-07-04T02:36:33.812Z,14.51
2018-07-04T02:37:33.801Z,14.59
2018-07-04T02:38:33.791Z,14.60
2018-07-04T02:39:33.774Z,14.58
2018-07-04T02:40:33.766Z,14.65
2018-07-04T02:41:33.782Z,14.63
2018-07-04T02:42:33.749Z,14.58
2018-07-04T02:43:33.732Z,14.65
2018-07-04T02:44:33.732Z,14.69
2018-07-04T02:45:33.711Z,14.59
2018-07-04T02:46:33.697Z,14.69
2018-07-04T02:47:33.698Z,14.69
2018-07-04T02:48:33.682Z,14.66
2018-07-04T02:49:33.671Z,14.70
2018-07-04T02:50:33.663Z,14.66
2018-07-04T02:51:33.646Z,14.72
2018-07-04T02:52:33.637Z,14.68
2018-07-04T02:53:33.625Z,14.77
2018-07-04T02:54:33.617Z,14.79
2018-07-04T02:55:33.607Z,14.77
2018-07-04T02:56:33.594Z,14.78
2018-07-04T02:57:33.588Z,14.79
2018-07-04T02:58:33.567Z,14.69
2018-07-04T02:59:33.563Z,14.79
2018-07-04T03:00:33.597Z,14.65
2018-07-04T03:01:33.539Z,14.68
2018-07-04T03:02:33.599Z,14.65
2018-07-04T03:03:33.513Z,14.68
2018-07-04T03:04:33.552Z,14.51
2018-07-04T03:05:33.542Z,14.51
2018-07-04T03:06:33.482Z,14.54
2018-07-04T03:07:33.505Z,14.53
2018-07-04T03:08:33.464Z,14.51
2018-07-04T03:09:33.455Z,14.51
2018-07-04T03:10:33.445Z,14.54
2018-07-04T03:11:33.427Z,14.55
2018-07-04T03:12:33.419Z,14.59
2018-07-04T03:13:33.412Z,14.59
2018-07-04T03:14:33.401Z,14.53
2018-07-04T03:15:33.383Z,14.55
2018-07-04T03:16:33.375Z,14.62
2018-07-04T03:17:33.371Z,14.66
2018-07-04T03:18:33.378Z,14.60
2018-07-04T03:19:33.347Z,14.66
2018-07-04T03:20:33.334Z,14.62
2018-07-04T03:21:33.323Z,14.81
2018-07-04T03:22:33.318Z,14.73
2018-07-04T03:23:33.297Z,14.81
2018-07-04T03:24:33.289Z,14.81
2018-07-04T03:25:33.280Z,14.81
2018-07-04T03:26:33.264Z,14.77
2018-07-04T03:27:33.260Z,14.88
2018-07-04T03:28:33.252Z,14.96
2018-07-04T03:29:33.252Z,14.92
2018-07-04T03:30:33.224Z,14.92
2018-07-04T03:31:33.219Z,14.97
2018-07-04T03:32:33.204Z,14.96
2018-07-04T03:33:33.193Z,15.04
2018-07-04T03:34:33.214Z,15.07
2018-07-04T03:35:33.166Z,15.06
2018-07-04T03:36:33.158Z,15.04
2018-07-04T03:37:33.147Z,15.03
2018-07-04T03:38:33.134Z,14.99
2018-07-04T03:39:33.133Z,15.00
2018-07-04T03:40:33.141Z,14.84
2018-07-04T03:41:33.108Z,14.77
2018-07-04T03:42:33.097Z,14.70
2018-07-04T03:43:33.082Z,14.69
2018-07-04T03:44:33.075Z,14.51
2018-07-04T03:45:33.084Z,14.55
2018-07-04T03:46:33.057Z,14.50
2018-07-04T03:47:33.037Z,14.45
2018-07-04T03:48:33.031Z,14.43
2018-07-04T03:49:33.017Z,14.44
2018-07-04T03:50:33.032Z,14.37
2018-07-04T03:51:33.000Z,14.41
2018-07-04T03:52:32.987Z,14.35
2018-07-04T03:53:32.978Z,14.35
2018-07-04T03:54:32.965Z,14.41
2018-07-04T03:55:32.954Z,14.37
2018-07-04T03:56:32.943Z,14.36
2018-07-04T03:57:32.929Z,14.48
2018-07-04T03:58:32.923Z,14.50
2018-07-04T03:59:32.917Z,14.40
2018-07-04T04:00:32.917Z,14.48
2018-07-04T04:01:32.885Z,14.41
2018-07-04T04:02:32.877Z,14.43
2018-07-04T04:03:32.869Z,14.35
2018-07-04T04:04:32.861Z,14.41
2018-07-04T04:05:32.875Z,14.40
2018-07-04T04:06:32.835Z,14.37
2018-07-04T04:07:32.823Z,14.40
2018-07-04T04:08:32.810Z,14.40
2018-07-04T04:09:32.800Z,14.44
2018-07-04T04:10:32.789Z,14.37
2018-07-04T04:11:32.788Z,14.40
2018-07-04T04:12:32.773Z,14.50
2018-07-04T04:13:32.762Z,14.47
2018-07-04T04:14:32.757Z,14.40
2018-07-04T04:15:32.736Z,14.45
2018-07-04T04:16:32.725Z,14.54
2018-07-04T04:17:32.720Z,14.45
2018-07-04T04:18:32.705Z,14.47
2018-07-04T04:19:32.692Z,14.54
2018-07-04T04:20:32.679Z,14.47
2018-07-04T04:21:32.675Z,14.55
2018-07-04T04:22:32.673Z,14.51
2018-07-04T04:23:32.652Z,14.54
2018-07-04T04:24:32.642Z,14.51
2018-07-04T04:25:32.641Z,14.59
2018-07-04T04:26:32.649Z,14.53
2018-07-04T04:27:32.605Z,14.55
2018-07-04T04:28:32.592Z,14.55
2018-07-04T04:29:32.581Z,14.60
2018-07-04T04:30:32.573Z,14.53
2018-07-04T04:31:32.590Z,14.51
2018-07-04T04:32:32.561Z,14.54
2018-07-04T04:33:32.561Z,14.58
2018-07-04T04:34:32.529Z,14.60
2018-07-04T04:35:32.521Z,14.60
2018-07-04T04:36:32.513Z,14.69
2018-07-04T04:37:32.504Z,14.65
2018-07-04T04:38:32.489Z,14.59
2018-07-04T04:39:32.477Z,14.70
2018-07-04T04:40:32.462Z,14.72
2018-07-04T04:41:32.463Z,14.66
2018-07-04T04:42:32.455Z,14.70
2018-07-04T04:43:32.467Z,14.65
2018-07-04T04:44:32.430Z,14.73
2018-07-04T04:45:32.418Z,14.77
2018-07-04T04:46:32.401Z,14.78
2018-07-04T04:47:32.389Z,14.79
2018-07-04T04:48:32.374Z,14.82
2018-07-04T04:49:32.373Z,14.82
2018-07-04T04:50:32.360Z,14.86
2018-07-04T04:51:32.348Z,14.85
2018-07-04T04:52:32.361Z,14.86
2018-07-04T04:53:32.322Z,14.89
2018-07-04T04:54:32.312Z,14.99
2018-07-04T04:55:32.314Z,14.99
2018-07-04T04:56:32.295Z,14.97
2018-07-04T04:57:32.283Z,15.06
2018-07-04T04:58:32.288Z,15.14
2018-07-04T04:59:32.261Z,15.15
2018-07-04T05:00:32.248Z,15.14
2018-07-04T05:01:32.236Z,15.19
2018-07-04T05:02:32.231Z,15.21
2018-07-04T05:03:32.244Z,15.21
2018-07-04T05:04:32.208Z,15.31
2018-07-04T05:05:32.210Z,15.39
2018-07-04T05:06:32.183Z,15.43
2018-07-04T05:07:32.175Z,15.47
2018-07-04T05:08:32.165Z,15.52
2018-07-04T05:09:32.157Z,15.51
2018-07-04T05:10:32.149Z,15.47
2018-07-04T05:11:32.151Z,15.55
2018-07-04T05:12:32.132Z,15.59
2018-07-04T05:13:32.111Z,15.72
2018-07-04T05:14:32.112Z,15.68
2018-07-04T05:15:32.089Z,15.70
2018-07-04T05:16:32.079Z,15.75
2018-07-04T05:17:32.081Z,15.79
2018-07-04T05:18:32.059Z,15.83
2018-07-04T05:19:32.045Z,15.82
2018-07-04T05:20:32.029Z,15.82
2018-07-04T05:21:32.025Z,15.91
2018-07-04T05:22:32.014Z,15.91
2018-07-04T05:23:31.999Z,16.01
2018-07-04T05:24:32.013Z,15.97
2018-07-04T05:25:31.976Z,16.04
2018-07-04T05:26:31.966Z,16.05
2018-07-04T05:27:31.958Z,16.15
2018-07-04T05:28:31.950Z,16.15
2018-07-04T05:29:31.944Z,16.26
2018-07-04T05:30:31.939Z,16.15
2018-07-04T05:31:31.924Z,16.29
2018-07-04T05:32:31.908Z,16.29
2018-07-04T05:33:31.891Z,16.41
2018-07-04T05:34:31.882Z,16.35
2018-07-04T05:35:31.894Z,16.35
2018-07-04T05:36:31.865Z,16.41
2018-07-04T05:37:31.847Z,16.51
2018-07-04T05:38:31.840Z,16.56
2018-07-04T05:39:31.848Z,16.64
2018-07-04T05:40:31.850Z,16.68
2018-07-04T05:41:31.816Z,16.61
2018-07-04T05:42:31.799Z,16.69
2018-07-04T05:43:31.788Z,16.72
2018-07-04T05:44:31.773Z,16.90
2018-07-04T05:45:31.761Z,16.87
2018-07-04T05:46:31.754Z,16.89
2018-07-04T05:47:31.750Z,17.02
2018-07-04T05:48:31.741Z,17.05
2018-07-04T05:49:31.724Z,17.08
2018-07-04T05:50:31.730Z,17.08
2018-07-04T05:51:31.852Z,17.19
2018-07-04T05:52:31.766Z,17.30
2018-07-04T05:53:31.749Z,17.39
2018-07-04T05:54:31.666Z,17.42
2018-07-04T05:55:31.656Z,17.38
2018-07-04T05:56:31.654Z,17.52
2018-07-04T05:57:31.629Z,17.57
2018-07-04T05:58:31.635Z,17.70
2018-07-04T05:59:31.633Z,17.83
2018-07-04T06:00:31.631Z,17.89
2018-07-04T06:01:31.599Z,17.94
2018-07-04T06:02:31.581Z,18.05
2018-07-04T06:03:31.565Z,18.05
2018-07-04T06:04:31.568Z,18.18
2018-07-04T06:05:31.541Z,18.20
2018-07-04T06:06:31.535Z,18.19
2018-07-04T06:07:31.524Z,18.20
2018-07-04T06:08:31.515Z,18.31
2018-07-04T06:09:31.499Z,18.37
2018-07-04T06:10:31.489Z,18.49
2018-07-04T06:11:31.483Z,18.47
2018-07-04T06:12:31.477Z,18.52
2018-07-04T06:13:31.484Z,18.56
2018-07-04T06:14:31.449Z,18.70
2018-07-04T06:15:31.439Z,18.74
2018-07-04T06:16:31.445Z,18.78
2018-07-04T06:17:31.417Z,18.93
2018-07-04T06:18:31.405Z,18.96
2018-07-04T06:19:31.398Z,19.15
2018-07-04T06:20:31.386Z,19.18
2018-07-04T06:21:31.404Z,19.19
2018-07-04T06:22:31.362Z,19.22
2018-07-04T06:23:31.350Z,19.30
2018-07-04T06:24:31.360Z,19.55
2018-07-04T06:25:31.333Z,19.63
2018-07-04T06:26:31.328Z,19.74
2018-07-04T06:27:31.310Z,19.81
2018-07-04T06:28:31.293Z,19.85
2018-07-04T06:29:31.282Z,19.94
2018-07-04T06:30:31.275Z,20.00
2018-07-04T06:31:31.266Z,20.07
2018-07-04T06:32:31.368Z,20.02
2018-07-04T06:33:31.248Z,20.16
2018-07-04T06:34:31.233Z,20.21
2018-07-04T06:35:31.221Z,20.18
2018-07-04T06:36:31.209Z,20.19
2018-07-04T06:37:31.224Z,20.22
2018-07-04T06:38:31.186Z,20.24
2018-07-04T06:39:31.179Z,20.34
2018-07-04T06:40:31.175Z,20.25
2018-07-04T06:41:31.156Z,20.21
2018-07-04T06:42:31.145Z,20.16
2018-07-04T06:43:31.144Z,20.24
2018-07-04T06:44:31.129Z,20.18
2018-07-04T06:45:31.117Z,20.22
2018-07-04T06:46:31.107Z,20.31
2018-07-04T06:47:31.102Z,20.09
2018-07-04T06:48:31.111Z,20.09
2018-07-04T06:49:31.069Z,19.95
2018-07-04T06:50:31.061Z,20.02
2018-07-04T06:51:31.051Z,20.00
2018-07-04T06:52:31.041Z,19.96
2018-07-04T06:53:31.034Z,19.96
2018-07-04T06:54:31.097Z,19.94
2018-07-04T06:55:31.006Z,19.94
2018-07-04T06:56:30.996Z,20.06
2018-07-04T06:57:30.988Z,20.02
2018-07-04T06:58:31.005Z,20.02
2018-07-04T06:59:30.961Z,20.07
2018-07-04T07:00:30.949Z,19.95
2018-07-04T07:01:30.937Z,20.03
2018-07-04T07:02:30.929Z,20.09
2018-07-04T07:03:30.924Z,20.11
2018-07-04T07:04:30.913Z,20.19
2018-07-04T07:05:30.902Z,20.18
2018-07-04T07:06:30.888Z,20.34
2018-07-04T07:07:30.884Z,20.34
2018-07-04T07:08:30.910Z,20.39
2018-07-04T07:09:30.851Z,20.31
2018-07-04T07:10:30.845Z,20.36
2018-07-04T07:11:30.838Z,20.32
2018-07-04T07:12:30.829Z,20.36
2018-07-04T07:13:30.810Z,20.41
2018-07-04T07:14:30.874Z,20.40
2018-07-04T07:15:30.797Z,20.51
2018-07-04T07:16:30.791Z,20.51
2018-07-04T07:17:30.788Z,20.52
2018-07-04T07:18:30.810Z,20.58
2018-07-04T07:19:32.809Z,20.58
2018-07-04T07:20:30.733Z,20.60
2018-07-04T07:21:30.722Z,20.69
2018-07-04T07:22:30.714Z,20.77
2018-07-04T07:23:30.708Z,20.75
2018-07-04T07:24:30.698Z,20.81
2018-07-04T07:25:30.686Z,20.80
2018-07-04T07:26:30.673Z,20.90
2018-07-04T07:27:30.695Z,20.92
2018-07-04T07:28:30.653Z,20.95
2018-07-04T07:29:30.650Z,20.93
2018-07-04T07:30:30.631Z,21.11
2018-07-04T07:31:30.618Z,21.15
2018-07-04T07:32:30.609Z,21.24
2018-07-04T07:33:30.618Z,21.33
2018-07-04T07:34:30.614Z,21.40
2018-07-04T07:35:30.575Z,21.57
2018-07-04T07:36:30.567Z,21.64
2018-07-04T07:37:30.556Z,21.73
2018-07-04T07:38:30.551Z,21.75
2018-07-04T07:39:30.530Z,21.72
2018-07-04T07:40:30.516Z,21.79
2018-07-04T07:41:30.512Z,21.91
2018-07-04T07:42:30.498Z,21.98
2018-07-04T07:43:30.514Z,22.06
2018-07-04T07:44:30.481Z,22.08
2018-07-04T07:45:30.475Z,22.11
2018-07-04T07:46:30.455Z,22.06
2018-07-04T07:47:30.455Z,22.08
2018-07-04T07:48:30.439Z,22.20
2018-07-04T07:49:30.430Z,22.26
2018-07-04T07:50:30.416Z,22.35
2018-07-04T07:51:30.401Z,22.43
2018-07-04T07:52:30.388Z,22.55
2018-07-04T07:53:30.380Z,22.66
2018-07-04T07:54:30.458Z,22.70
2018-07-04T07:55:30.361Z,22.75
2018-07-04T07:56:30.360Z,22.75
2018-07-04T07:57:30.345Z,22.87
2018-07-04T07:58:30.328Z,22.84
2018-07-04T07:59:30.320Z,22.83
2018-07-04T08:00:30.302Z,22.78
2018-07-04T08:01:30.306Z,22.88
2018-07-04T08:02:30.297Z,22.99
2018-07-04T08:03:30.283Z,22.98
2018-07-04T08:04:30.335Z,23.10
2018-07-04T08:05:30.273Z,23.13
2018-07-04T08:06:30.267Z,23.08
2018-07-04T08:07:30.258Z,23.23
2018-07-04T08:08:30.292Z,23.27
2018-07-04T08:09:30.261Z,23.34
2018-07-04T08:10:30.245Z,23.31
2018-07-04T08:11:30.207Z,23.27
2018-07-04T08:12:30.191Z,23.34
2018-07-04T08:13:30.174Z,23.40
2018-07-04T08:14:30.187Z,23.39
2018-07-04T08:15:30.147Z,23.50
2018-07-04T08:16:30.142Z,23.62
2018-07-04T08:17:30.131Z,23.71
2018-07-04T08:18:30.116Z,23.78
2018-07-04T08:19:30.104Z,23.80
2018-07-04T08:20:30.096Z,23.84
2018-07-04T08:21:30.092Z,23.93
2018-07-04T08:22:30.091Z,23.86
2018-07-04T08:23:30.203Z,24.02
2018-07-04T08:24:30.056Z,24.05
2018-07-04T08:25:30.054Z,24.14
2018-07-04T08:26:30.032Z,24.21
2018-07-04T08:27:30.022Z,24.40
2018-07-04T08:28:30.022Z,24.60
2018-07-04T08:29:29.996Z,24.65
2018-07-04T08:30:29.990Z,24.81
2018-07-04T08:31:29.984Z,24.95
2018-07-04T08:32:29.971Z,25.28
2018-07-04T08:33:29.961Z,25.46
2018-07-04T08:34:29.975Z,25.62
2018-07-04T08:35:29.946Z,25.78
2018-07-04T08:36:29.939Z,25.96
2018-07-04T08:37:29.921Z,26.10
2018-07-04T08:38:29.907Z,26.34
2018-07-04T08:39:29.897Z,26.56
2018-07-04T08:40:29.906Z,26.88
2018-07-04T08:41:29.873Z,26.96
2018-07-04T08:42:29.868Z,27.07
2018-07-04T08:43:29.862Z,27.22
2018-07-04T08:44:29.850Z,27.21
2018-07-04T08:45:29.859Z,27.40
2018-07-04T08:46:29.829Z,27.65
2018-07-04T08:47:29.817Z,27.74
2018-07-04T08:48:29.806Z,27.86
2018-07-04T08:49:29.804Z,27.80
2018-07-04T08:50:29.818Z,27.95
2018-07-04T08:51:29.778Z,28.17
2018-07-04T08:52:29.769Z,28.29
2018-07-04T08:53:29.754Z,28.48
2018-07-04T08:54:29.746Z,28.63
2018-07-04T08:55:29.749Z,28.57
2018-07-04T08:56:29.735Z,28.56
2018-07-04T08:57:29.729Z,28.89
2018-07-04T08:58:29.763Z,28.93
2018-07-04T08:59:29.699Z,29.02
2018-07-04T09:00:29.685Z,29.08
2018-07-04T09:01:29.678Z,29.26
2018-07-04T09:02:29.668Z,29.14
2018-07-04T09:03:29.662Z,29.34
2018-07-04T09:04:29.666Z,29.39
2018-07-04T09:05:29.683Z,29.61
2018-07-04T09:06:29.634Z,29.73
2018-07-04T09:07:29.623Z,29.88
2018-07-04T09:08:29.624Z,29.88
2018-07-04T09:09:29.607Z,29.79
2018-07-04T09:10:29.638Z,29.94
2018-07-04T09:11:29.656Z,30.00
2018-07-04T09:12:29.584Z,30.03
2018-07-04T09:13:29.558Z,30.19
2018-07-04T09:14:29.552Z,29.97
2018-07-04T09:15:29.547Z,29.91
2018-07-04T09:16:29.541Z,29.82
2018-07-04T09:17:29.530Z,30.02
2018-07-04T09:18:29.516Z,30.02
2018-07-04T09:19:29.505Z,30.16
2018-07-04T09:20:29.492Z,30.27
2018-07-04T09:21:29.514Z,30.06
2018-07-04T09:22:29.477Z,30.24
2018-07-04T09:23:29.465Z,30.27
2018-07-04T09:24:29.478Z,30.40
2018-07-04T09:25:29.444Z,30.63
2018-07-04T09:26:29.439Z,30.96
2018-07-04T09:27:29.433Z,31.15
2018-07-04T09:28:29.422Z,31.20
2018-07-04T09:29:29.561Z,31.24
2018-07-04T09:30:29.402Z,31.51
2018-07-04T09:31:29.408Z,31.62
2018-07-04T09:32:29.395Z,31.40
2018-07-04T09:33:29.370Z,31.27
2018-07-04T09:34:29.367Z,31.31
2018-07-04T09:35:29.358Z,31.29
2018-07-04T09:36:29.361Z,31.21
2018-07-04T09:37:29.369Z,31.22
2018-07-04T09:38:29.388Z,31.73
2018-07-04T09:39:29.322Z,32.03
2018-07-04T09:40:29.316Z,32.09
2018-07-04T09:41:29.306Z,32.22
2018-07-04T09:42:29.294Z,32.30
2018-07-04T09:43:29.286Z,32.36
2018-07-04T09:44:29.272Z,32.34
2018-07-04T09:45:29.264Z,32.34
2018-07-04T09:46:29.254Z,32.41
2018-07-04T09:47:29.251Z,32.60
2018-07-04T09:48:29.247Z,32.49
2018-07-04T09:49:29.229Z,32.30
2018-07-04T09:50:29.218Z,32.27
2018-07-04T09:51:29.205Z,32.16
2018-07-04T09:52:29.223Z,32.12
2018-07-04T09:53:29.216Z,31.87
2018-07-04T09:54:29.197Z,31.64
2018-07-04T09:55:29.166Z,31.42
2018-07-04T09:56:29.154Z,31.17
2018-07-04T09:57:29.147Z,31.09
2018-07-04T09:58:29.153Z,31.24
2018-07-04T09:59:29.162Z,31.24
2018-07-04T10:00:29.130Z,31.29
2018-07-04T10:01:29.129Z,31.21
2018-07-04T10:02:29.098Z,31.20
2018-07-04T10:03:29.084Z,31.18
2018-07-04T10:04:29.076Z,31.20
2018-07-04T10:05:29.066Z,31.36
2018-07-04T10:06:29.055Z,31.39
2018-07-04T10:07:29.051Z,31.31
2018-07-04T10:08:29.044Z,31.47
2018-07-04T10:09:29.033Z,31.47
2018-07-04T10:10:29.018Z,31.47
2018-07-04T10:11:29.014Z,31.49
2018-07-04T10:12:29.007Z,31.44
2018-07-04T10:13:29.000Z,31.37
2018-07-04T10:14:28.981Z,31.44
2018-07-04T10:15:28.968Z,31.52
2018-07-04T10:16:28.954Z,31.65
2018-07-04T10:17:28.941Z,31.80
2018-07-04T10:18:28.936Z,31.96
2018-07-04T10:19:28.948Z,32.21
2018-07-04T10:20:28.943Z,32.29
2018-07-04T10:21:28.908Z,32.37
2018-07-04T10:22:28.899Z,32.30
2018-07-04T10:23:28.884Z,32.46
2018-07-04T10:24:28.906Z,32.53
2018-07-04T10:25:28.875Z,32.34
2018-07-04T10:26:28.858Z,32.48
2018-07-04T10:27:28.845Z,32.58
2018-07-04T10:28:28.834Z,32.37
2018-07-04T10:29:28.825Z,32.34
2018-07-04T10:30:28.829Z,32.45
2018-07-04T10:31:28.811Z,32.53
2018-07-04T10:32:28.801Z,32.52
2018-07-04T10:33:28.789Z,32.41
2018-07-04T10:34:28.779Z,32.33
2018-07-04T10:35:28.769Z,32.27
2018-07-04T10:36:28.755Z,32.51
2018-07-04T10:37:28.744Z,32.40
2018-07-04T10:38:28.739Z,32.59
2018-07-04T10:39:28.730Z,32.48
2018-07-04T10:40:28.742Z,32.58
2018-07-04T10:41:28.707Z,32.68
2018-07-04T10:42:28.701Z,32.83
2018-07-04T10:43:28.710Z,32.86
2018-07-04T10:44:28.688Z,33.00
2018-07-04T10:45:28.698Z,32.96
2018-07-04T10:46:28.666Z,32.86
2018-07-04T10:47:28.655Z,32.93
2018-07-04T10:48:28.644Z,32.80
2018-07-04T10:49:28.637Z,32.89
2018-07-04T10:50:28.660Z,32.75
2018-07-04T10:51:28.667Z,32.89
2018-07-04T10:52:28.635Z,33.05
2018-07-04T10:53:28.602Z,33.42
2018-07-04T10:54:28.589Z,34.01
2018-07-04T10:55:28.577Z,34.33
2018-07-04T10:56:28.568Z,34.64
2018-07-04T10:57:28.566Z,34.33
2018-07-04T10:58:28.562Z,34.17
2018-07-04T10:59:28.538Z,33.98
2018-07-04T11:00:28.534Z,33.84
2018-07-04T11:01:28.539Z,34.05
2018-07-04T11:02:28.509Z,34.08
2018-07-04T11:03:28.528Z,33.81
2018-07-04T11:04:28.503Z,33.62
2018-07-04T11:05:28.486Z,33.53
2018-07-04T11:06:28.475Z,33.32
2018-07-04T11:07:28.460Z,32.92
2018-07-04T11:08:28.450Z,32.65
2018-07-04T11:09:28.443Z,32.46
2018-07-04T11:10:28.428Z,32.29
2018-07-04T11:11:28.451Z,32.48
2018-07-04T11:12:28.415Z,32.45
2018-07-04T11:13:28.397Z,32.59
2018-07-04T11:14:28.390Z,32.65
2018-07-04T11:15:28.383Z,32.46
2018-07-04T11:16:28.406Z,32.27
2018-07-04T11:17:28.368Z,32.21
2018-07-04T11:18:28.357Z,32.33
2018-07-04T11:19:28.352Z,32.15
2018-07-04T11:20:28.334Z,32.01
2018-07-04T11:21:28.335Z,32.04
2018-07-04T11:22:28.325Z,32.11
2018-07-04T11:23:28.357Z,32.08
2018-07-04T11:24:28.351Z,32.46
2018-07-04T11:25:28.298Z,32.58
2018-07-04T11:26:28.293Z,32.56
2018-07-04T11:27:28.291Z,32.78
2018-07-04T11:28:28.332Z,33.19
2018-07-04T11:29:28.266Z,33.39
2018-07-04T11:30:28.260Z,33.77
2018-07-04T11:31:28.258Z,34.01
2018-07-04T11:32:28.268Z,34.43
2018-07-04T11:33:28.225Z,34.36
2018-07-04T11:34:28.246Z,34.57
2018-07-04T11:35:28.210Z,34.54
2018-07-04T11:36:28.206Z,34.99
2018-07-04T11:37:28.213Z,35.51
2018-07-04T11:38:28.240Z,35.56
2018-07-04T11:39:28.177Z,35.90
2018-07-04T11:40:28.186Z,36.20
2018-07-04T11:41:28.166Z,36.02
2018-07-04T11:42:28.165Z,35.60
2018-07-04T11:43:28.216Z,35.30
2018-07-04T11:44:28.138Z,35.05
2018-07-04T11:45:28.127Z,35.27
2018-07-04T11:46:28.118Z,34.81
2018-07-04T11:47:28.116Z,34.64
2018-07-04T11:48:28.110Z,34.21
2018-07-04T11:49:28.144Z,33.61
2018-07-04T11:50:28.090Z,33.27
2018-07-04T11:51:28.073Z,32.83
2018-07-04T11:52:28.064Z,32.31
2018-07-04T11:53:28.055Z,32.71
2018-07-04T11:54:28.053Z,32.71
2018-07-04T11:55:28.046Z,32.38
2018-07-04T11:56:28.065Z,32.41
2018-07-04T11:57:28.026Z,32.18
2018-07-04T11:58:28.015Z,32.01
2018-07-04T11:59:28.029Z,31.66
2018-07-04T12:00:27.990Z,31.47
2018-07-04T12:01:27.987Z,31.27
2018-07-04T12:02:27.977Z,30.99
2018-07-04T12:03:27.964Z,31.05
2018-07-04T12:04:27.956Z,31.14
2018-07-04T12:05:27.982Z,30.96
2018-07-04T12:06:27.936Z,30.65
2018-07-04T12:07:27.927Z,30.59
2018-07-04T12:08:27.921Z,30.77
2018-07-04T12:09:27.918Z,30.88
2018-07-04T12:10:27.930Z,30.81
2018-07-04T12:11:27.887Z,31.14
2018-07-04T12:12:27.875Z,31.52
2018-07-04T12:13:27.865Z,31.47
2018-07-04T12:14:27.864Z,31.37
2018-07-04T12:15:27.853Z,31.33
2018-07-04T12:16:27.848Z,31.42
2018-07-04T12:17:27.828Z,31.55
2018-07-04T12:18:27.820Z,32.19
2018-07-04T12:19:27.813Z,32.77
2018-07-04T12:20:27.807Z,32.80
2018-07-04T12:21:27.826Z,32.85
2018-07-04T12:22:27.791Z,33.01
2018-07-04T12:23:27.773Z,33.27
2018-07-04T12:24:27.761Z,33.77
2018-07-04T12:25:27.753Z,33.87
2018-07-04T12:26:27.745Z,33.77
2018-07-04T12:27:27.741Z,33.74
2018-07-04T12:28:27.730Z,33.61
2018-07-04T12:29:27.720Z,33.80
2018-07-04T12:30:27.713Z,33.86
2018-07-04T12:31:27.728Z,33.80
2018-07-04T12:32:27.689Z,33.69
2018-07-04T12:33:27.683Z,33.43
2018-07-04T12:34:27.677Z,33.19
2018-07-04T12:35:27.668Z,33.14
2018-07-04T12:36:27.652Z,33.05
2018-07-04T12:37:27.713Z,32.73
2018-07-04T12:38:27.629Z,32.49
2018-07-04T12:39:27.627Z,31.97
2018-07-04T12:40:27.658Z,31.76
2018-07-04T12:41:27.605Z,31.27
2018-07-04T12:42:27.601Z,31.06
2018-07-04T12:43:27.638Z,30.91
2018-07-04T12:44:27.573Z,30.72
2018-07-04T12:45:27.565Z,30.53
2018-07-04T12:46:27.571Z,30.25
2018-07-04T12:47:27.641Z,29.82
2018-07-04T12:48:27.566Z,29.68
2018-07-04T12:49:27.531Z,29.45
2018-07-04T12:50:27.527Z,29.34
2018-07-04T12:51:27.511Z,29.27
2018-07-04T12:52:27.499Z,29.31